首页
METAR-TAF:

METAR-TAF

机场 :

奧西耶克, 克罗地亚

纬度: 45-27N, 经度: 018-48E, 海拔: 88米

当前天气观测

该预报发布于33分钟前的13:00 UTC
风速9节,风向西转西南
温度 22°C
湿度 57%
气压 1011 hPa
能见度10公里或以上
少量云层高于3300英尺
散云层高于4700英尺

METAR: LDOS 221300Z 24009KT 9999 FEW033 SCT047 22/13 Q1011

时间: 15:33 (13:33 UTC)

预报

该预报发布于2小时和8分钟前的11:25 UTC
预报有效从22日的 12点(UTC)到 23日的 12点(UTC)
风速12节,风向西
能见度10公里或以上
多云层高于3500英尺
几率 30% :
短暂存在
从 22日的 14点(UTC)到 22日的 19点(UTC)
风速15节,风向西北
少量云层高于3000英尺, 积雨云.
多云层高于3500英尺
雷暴, 小雨
成为
从 22日的 17点(UTC)到 22日的 19点(UTC)
风速5节,风向西转西北
几率 40% :
短暂存在
从 22日的 22点(UTC)到 23日的 12点(UTC)
少量云层高于3000英尺, 塔状积云.
多云层高于3500英尺
阵雨
成为
从 23日的 06点(UTC)到 23日的 08点(UTC)
风速12节,风向西转西北

TAF: LDOS 221125Z 2212/2312 26012KT 9999 BKN035 TX23/2213Z TN12/2304Z PROB30 TEMPO 2214/2219 32015KT -TSRA FEW030CB BKN035 BECMG 2217/2219 29005KT PROB40 TEMPO 2222/2312 SHRA FEW030TCU BKN035 BECMG 2306/2308 29012KT

超过4000个机场的气象观测和天气预报(METAR&TAF报告)。

可查询的气象台以黄色和红色小点在地图上表示。

将鼠标移到小点上方,可查看气象台名称。

然后点击查看天气观测和预报。

如需切换地图:点击带黑十字的绿色按钮放大地图;点击带横线的绿色按钮缩小地图;或者点击绿色箭头查看邻近地区的地图。


METAR-TAF: